createdAt,value
2022-12-29T10:23:44.823Z,27.73
2022-12-29T10:28:44.718Z,19.23
2022-12-29T10:33:42.848Z,14.67
2022-12-29T10:38:44.647Z,18.93
2022-12-29T10:43:45.728Z,12.17
2022-12-29T10:48:39.708Z,8.03
2022-12-29T10:53:40.791Z,13.47
2022-12-29T10:58:35.863Z,9.43
2022-12-29T11:03:52.628Z,13.83
2022-12-29T11:08:55.100Z,7.80
2022-12-29T11:13:52.584Z,7.20
2022-12-29T11:18:48.964Z,7.87
2022-12-29T11:23:43.650Z,6.77
2022-12-29T11:28:38.958Z,5.07
2022-12-29T11:33:35.401Z,6.00
2022-12-29T11:38:36.130Z,6.63
2022-12-29T11:43:37.163Z,4.97
2022-12-29T11:48:36.028Z,4.30
2022-12-29T11:53:35.079Z,6.40
2022-12-29T11:58:33.783Z,5.23
2022-12-29T12:03:30.356Z,6.22
2022-12-29T12:08:36.142Z,4.43
2022-12-29T12:13:34.502Z,3.22
2022-12-29T12:18:44.633Z,10.40
2022-12-29T12:24:00.851Z,6.43
2022-12-29T12:28:58.087Z,5.00
2022-12-29T12:33:55.897Z,5.28
2022-12-29T12:38:57.367Z,6.38
2022-12-29T12:43:53.910Z,6.03
2022-12-29T12:49:00.974Z,4.07
2022-12-29T12:54:12.083Z,2.90
2022-12-29T12:59:15.303Z,4.90
2022-12-29T13:04:37.880Z,2.17
2022-12-29T13:09:52.466Z,2.95
2022-12-29T13:15:01.525Z,2.78
2022-12-29T13:20:03.886Z,2.55
2022-12-29T13:25:17.949Z,2.85
2022-12-29T13:30:15.183Z,5.45
2022-12-29T13:35:21.819Z,5.68
2022-12-29T13:40:20.905Z,4.80
2022-12-29T13:45:18.462Z,7.27
2022-12-29T13:50:18.070Z,10.03
2022-12-29T13:55:29.578Z,7.57
2022-12-29T14:00:24.449Z,7.67
2022-12-29T14:05:32.216Z,6.10
2022-12-29T14:10:33.425Z,7.20
2022-12-29T14:15:29.063Z,6.70
2022-12-29T14:20:25.248Z,7.93
2022-12-29T14:25:52.040Z,8.23
2022-12-29T14:30:57.116Z,6.33
2022-12-29T14:35:53.520Z,8.07
2022-12-29T14:40:47.914Z,9.13
2022-12-29T14:45:44.533Z,10.33
2022-12-29T14:50:44.048Z,16.07
2022-12-29T14:55:42.821Z,18.63
2022-12-29T15:00:39.047Z,11.53
2022-12-29T15:05:37.940Z,18.77
2022-12-29T15:10:41.882Z,15.70
2022-12-29T15:15:40.671Z,15.80
2022-12-29T15:20:35.851Z,13.90
2022-12-29T15:25:29.464Z,19.40
2022-12-29T15:30:25.677Z,17.63
2022-12-29T15:35:29.458Z,17.03
2022-12-29T15:40:31.842Z,17.63
2022-12-29T15:45:33.859Z,21.57
2022-12-29T15:50:31.561Z,27.23
2022-12-29T15:55:30.838Z,23.93
2022-12-29T16:00:27.334Z,24.30
2022-12-29T16:05:23.322Z,22.23
